sensor_id;sensor_type;location;lat;lon;timestamp;temperature;humidity
15596;DHT22;7898;48.658;9.068;2023-07-13T00:01:35;19.20;99.90
15596;DHT22;7898;48.658;9.068;2023-07-13T00:04:04;19.10;99.90
15596;DHT22;7898;48.658;9.068;2023-07-13T00:06:31;19.10;99.90
15596;DHT22;7898;48.658;9.068;2023-07-13T00:08:58;19.00;99.90
15596;DHT22;7898;48.658;9.068;2023-07-13T00:11:25;18.90;99.90
15596;DHT22;7898;48.658;9.068;2023-07-13T00:13:54;18.80;99.90
15596;DHT22;7898;48.658;9.068;2023-07-13T00:16:20;18.80;99.90
15596;DHT22;7898;48.658;9.068;2023-07-13T00:18:47;18.70;99.90
15596;DHT22;7898;48.658;9.068;2023-07-13T00:21:14;18.60;99.90
15596;DHT22;7898;48.658;9.068;2023-07-13T00:23:42;18.60;99.90
15596;DHT22;7898;48.658;9.068;2023-07-13T00:26:10;18.50;99.90
15596;DHT22;7898;48.658;9.068;2023-07-13T00:28:38;18.40;99.90
15596;DHT22;7898;48.658;9.068;2023-07-13T00:31:09;18.30;99.90
15596;DHT22;7898;48.658;9.068;2023-07-13T00:33:36;18.30;99.90
15596;DHT22;7898;48.658;9.068;2023-07-13T00:36:04;18.30;99.90
15596;DHT22;7898;48.658;9.068;2023-07-13T00:38:31;18.30;99.90
15596;DHT22;7898;48.658;9.068;2023-07-13T00:40:58;18.20;99.90
15596;DHT22;7898;48.658;9.068;2023-07-13T00:43:27;18.20;99.90
15596;DHT22;7898;48.658;9.068;2023-07-13T00:46:25;18.20;99.90
15596;DHT22;7898;48.658;9.068;2023-07-13T00:48:54;18.10;99.90
15596;DHT22;7898;48.658;9.068;2023-07-13T00:51:27;18.10;99.90
15596;DHT22;7898;48.658;9.068;2023-07-13T00:53:57;18.10;99.90
15596;DHT22;7898;48.658;9.068;2023-07-13T00:56:25;18.10;99.90
15596;DHT22;7898;48.658;9.068;2023-07-13T00:58:53;18.00;99.90
15596;DHT22;7898;48.658;9.068;2023-07-13T01:01:20;18.00;99.90
15596;DHT22;7898;48.658;9.068;2023-07-13T01:03:48;18.00;99.90
15596;DHT22;7898;48.658;9.068;2023-07-13T01:06:16;17.90;99.90
15596;DHT22;7898;48.658;9.068;2023-07-13T01:08:43;17.90;99.90
15596;DHT22;7898;48.658;9.068;2023-07-13T01:11:10;17.90;99.90
15596;DHT22;7898;48.658;9.068;2023-07-13T01:13:37;17.80;99.90
15596;DHT22;7898;48.658;9.068;2023-07-13T01:16:13;17.80;99.90
15596;DHT22;7898;48.658;9.068;2023-07-13T01:18:41;17.80;99.90
15596;DHT22;7898;48.658;9.068;2023-07-13T01:21:09;17.70;99.90
15596;DHT22;7898;48.658;9.068;2023-07-13T01:23:36;17.60;99.90
15596;DHT22;7898;48.658;9.068;2023-07-13T01:26:03;17.50;99.90
15596;DHT22;7898;48.658;9.068;2023-07-13T01:28:30;17.40;99.90
15596;DHT22;7898;48.658;9.068;2023-07-13T01:30:58;17.20;99.90
15596;DHT22;7898;48.658;9.068;2023-07-13T01:33:25;17.00;99.90
15596;DHT22;7898;48.658;9.068;2023-07-13T01:35:52;16.90;99.90
15596;DHT22;7898;48.658;9.068;2023-07-13T01:38:22;16.80;99.90
15596;DHT22;7898;48.658;9.068;2023-07-13T01:40:49;16.80;99.90
15596;DHT22;7898;48.658;9.068;2023-07-13T01:43:17;16.70;99.90
15596;DHT22;7898;48.658;9.068;2023-07-13T01:45:45;16.70;99.90
15596;DHT22;7898;48.658;9.068;2023-07-13T01:48:12;16.60;99.90
15596;DHT22;7898;48.658;9.068;2023-07-13T01:50:40;16.50;99.90
15596;DHT22;7898;48.658;9.068;2023-07-13T01:53:07;16.40;99.90
15596;DHT22;7898;48.658;9.068;2023-07-13T01:55:35;16.20;99.90
15596;DHT22;7898;48.658;9.068;2023-07-13T01:58:03;16.10;99.90
15596;DHT22;7898;48.658;9.068;2023-07-13T02:00:30;16.00;99.90
15596;DHT22;7898;48.658;9.068;2023-07-13T02:02:57;15.90;99.90
15596;DHT22;7898;48.658;9.068;2023-07-13T02:05:59;15.80;99.90
15596;DHT22;7898;48.658;9.068;2023-07-13T02:12:00;15.60;99.90
15596;DHT22;7898;48.658;9.068;2023-07-13T02:14:26;15.60;99.90
15596;DHT22;7898;48.658;9.068;2023-07-13T02:16:53;15.50;99.90
15596;DHT22;7898;48.658;9.068;2023-07-13T02:19:20;15.50;99.90
15596;DHT22;7898;48.658;9.068;2023-07-13T02:21:48;15.40;99.90
15596;DHT22;7898;48.658;9.068;2023-07-13T02:24:14;15.40;99.90
15596;DHT22;7898;48.658;9.068;2023-07-13T02:26:43;15.40;99.90
15596;DHT22;7898;48.658;9.068;2023-07-13T02:29:12;15.40;99.90
15596;DHT22;7898;48.658;9.068;2023-07-13T02:31:38;15.40;99.90
15596;DHT22;7898;48.658;9.068;2023-07-13T02:34:05;15.50;99.90
15596;DHT22;7898;48.658;9.068;2023-07-13T02:39:22;15.40;99.90
15596;DHT22;7898;48.658;9.068;2023-07-13T02:41:58;15.30;99.90
15596;DHT22;7898;48.658;9.068;2023-07-13T02:44:27;15.20;99.90
15596;DHT22;7898;48.658;9.068;2023-07-13T02:46:54;15.20;99.90
15596;DHT22;7898;48.658;9.068;2023-07-13T02:49:21;15.10;99.90
15596;DHT22;7898;48.658;9.068;2023-07-13T02:51:48;15.00;99.90
15596;DHT22;7898;48.658;9.068;2023-07-13T02:54:15;15.00;99.90
15596;DHT22;7898;48.658;9.068;2023-07-13T02:56:42;14.90;99.90
15596;DHT22;7898;48.658;9.068;2023-07-13T02:59:09;14.90;99.90
15596;DHT22;7898;48.658;9.068;2023-07-13T03:01:38;14.80;99.90
15596;DHT22;7898;48.658;9.068;2023-07-13T03:04:05;14.80;99.90
15596;DHT22;7898;48.658;9.068;2023-07-13T03:06:32;14.80;99.90
15596;DHT22;7898;48.658;9.068;2023-07-13T03:08:59;14.80;99.90
15596;DHT22;7898;48.658;9.068;2023-07-13T03:11:26;14.80;99.90
15596;DHT22;7898;48.658;9.068;2023-07-13T03:13:54;14.80;99.90
15596;DHT22;7898;48.658;9.068;2023-07-13T03:16:21;14.80;99.90
15596;DHT22;7898;48.658;9.068;2023-07-13T03:18:49;14.80;99.90
15596;DHT22;7898;48.658;9.068;2023-07-13T03:21:16;14.80;99.90
15596;DHT22;7898;48.658;9.068;2023-07-13T03:23:43;14.70;99.90
15596;DHT22;7898;48.658;9.068;2023-07-13T03:26:13;14.70;99.90
15596;DHT22;7898;48.658;9.068;2023-07-13T03:28:40;14.70;99.90
15596;DHT22;7898;48.658;9.068;2023-07-13T03:31:10;14.80;99.90
15596;DHT22;7898;48.658;9.068;2023-07-13T03:33:37;14.80;99.90
15596;DHT22;7898;48.658;9.068;2023-07-13T03:36:07;14.80;99.90
15596;DHT22;7898;48.658;9.068;2023-07-13T03:38:34;14.80;99.90
15596;DHT22;7898;48.658;9.068;2023-07-13T03:41:01;14.80;99.90
15596;DHT22;7898;48.658;9.068;2023-07-13T03:43:28;14.80;99.90
15596;DHT22;7898;48.658;9.068;2023-07-13T03:45:55;14.80;99.90
15596;DHT22;7898;48.658;9.068;2023-07-13T03:48:22;14.90;99.90
15596;DHT22;7898;48.658;9.068;2023-07-13T03:50:49;14.90;99.90
15596;DHT22;7898;48.658;9.068;2023-07-13T03:53:17;14.90;99.90
15596;DHT22;7898;48.658;9.068;2023-07-13T03:55:44;14.90;99.90
15596;DHT22;7898;48.658;9.068;2023-07-13T03:58:33;14.90;99.90
15596;DHT22;7898;48.658;9.068;2023-07-13T04:01:01;14.80;99.90
15596;DHT22;7898;48.658;9.068;2023-07-13T04:03:29;14.80;99.90
15596;DHT22;7898;48.658;9.068;2023-07-13T04:05:58;14.80;99.90
15596;DHT22;7898;48.658;9.068;2023-07-13T04:08:27;14.80;99.90
15596;DHT22;7898;48.658;9.068;2023-07-13T04:10:55;14.80;99.90
15596;DHT22;7898;48.658;9.068;2023-07-13T04:13:22;14.80;99.90
15596;DHT22;7898;48.658;9.068;2023-07-13T04:15:49;14.90;99.90
15596;DHT22;7898;48.658;9.068;2023-07-13T04:18:17;14.90;99.90
15596;DHT22;7898;48.658;9.068;2023-07-13T04:20:45;15.00;99.90
15596;DHT22;7898;48.658;9.068;2023-07-13T04:23:12;15.00;99.90
15596;DHT22;7898;48.658;9.068;2023-07-13T04:25:43;15.00;99.90
15596;DHT22;7898;48.658;9.068;2023-07-13T04:28:10;15.10;99.90
15596;DHT22;7898;48.658;9.068;2023-07-13T04:30:37;15.10;99.90
15596;DHT22;7898;48.658;9.068;2023-07-13T04:33:04;15.10;99.90
15596;DHT22;7898;48.658;9.068;2023-07-13T04:35:31;15.10;99.90
15596;DHT22;7898;48.658;9.068;2023-07-13T04:37:58;15.20;99.90
15596;DHT22;7898;48.658;9.068;2023-07-13T04:40:26;15.20;99.90
15596;DHT22;7898;48.658;9.068;2023-07-13T04:42:56;15.20;99.90
15596;DHT22;7898;48.658;9.068;2023-07-13T04:45:23;15.30;99.90
15596;DHT22;7898;48.658;9.068;2023-07-13T04:47:50;15.30;99.90
15596;DHT22;7898;48.658;9.068;2023-07-13T04:50:17;15.40;99.90
15596;DHT22;7898;48.658;9.068;2023-07-13T04:52:48;15.40;99.90
15596;DHT22;7898;48.658;9.068;2023-07-13T04:55:15;15.40;99.90
15596;DHT22;7898;48.658;9.068;2023-07-13T04:57:42;15.50;99.90
15596;DHT22;7898;48.658;9.068;2023-07-13T05:00:12;15.50;99.90
15596;DHT22;7898;48.658;9.068;2023-07-13T05:02:39;15.50;99.90
15596;DHT22;7898;48.658;9.068;2023-07-13T05:05:07;15.50;99.90
15596;DHT22;7898;48.658;9.068;2023-07-13T05:07:34;15.60;99.90
15596;DHT22;7898;48.658;9.068;2023-07-13T05:10:01;15.80;99.90
15596;DHT22;7898;48.658;9.068;2023-07-13T05:12:29;15.80;99.90
15596;DHT22;7898;48.658;9.068;2023-07-13T05:14:56;16.00;99.90
15596;DHT22;7898;48.658;9.068;2023-07-13T05:17:24;16.00;99.90
15596;DHT22;7898;48.658;9.068;2023-07-13T05:19:51;16.10;99.90
15596;DHT22;7898;48.658;9.068;2023-07-13T05:22:18;16.20;99.90
15596;DHT22;7898;48.658;9.068;2023-07-13T05:24:45;16.30;99.90
15596;DHT22;7898;48.658;9.068;2023-07-13T05:27:12;16.50;99.90
15596;DHT22;7898;48.658;9.068;2023-07-13T05:29:39;16.50;99.90
15596;DHT22;7898;48.658;9.068;2023-07-13T05:32:06;16.50;99.90
15596;DHT22;7898;48.658;9.068;2023-07-13T05:34:34;16.60;99.90
15596;DHT22;7898;48.658;9.068;2023-07-13T05:37:01;16.70;99.90
15596;DHT22;7898;48.658;9.068;2023-07-13T05:39:28;16.70;99.90
15596;DHT22;7898;48.658;9.068;2023-07-13T05:41:55;16.70;99.90
15596;DHT22;7898;48.658;9.068;2023-07-13T05:44:22;16.80;99.90
15596;DHT22;7898;48.658;9.068;2023-07-13T05:46:49;16.80;99.90
15596;DHT22;7898;48.658;9.068;2023-07-13T05:49:16;16.80;99.90
15596;DHT22;7898;48.658;9.068;2023-07-13T05:51:44;16.90;99.90
15596;DHT22;7898;48.658;9.068;2023-07-13T05:54:11;16.90;99.90
15596;DHT22;7898;48.658;9.068;2023-07-13T05:56:38;16.90;99.90
15596;DHT22;7898;48.658;9.068;2023-07-13T05:59:05;17.00;99.90
15596;DHT22;7898;48.658;9.068;2023-07-13T06:01:31;17.00;99.90
15596;DHT22;7898;48.658;9.068;2023-07-13T06:03:58;17.10;99.90
15596;DHT22;7898;48.658;9.068;2023-07-13T06:06:25;17.20;99.90
15596;DHT22;7898;48.658;9.068;2023-07-13T06:08:53;17.40;99.90
15596;DHT22;7898;48.658;9.068;2023-07-13T06:11:22;17.50;99.90
15596;DHT22;7898;48.658;9.068;2023-07-13T06:13:50;17.60;99.90
15596;DHT22;7898;48.658;9.068;2023-07-13T06:16:17;17.80;99.90
15596;DHT22;7898;48.658;9.068;2023-07-13T06:18:44;18.00;99.90
15596;DHT22;7898;48.658;9.068;2023-07-13T06:21:13;18.20;99.90
15596;DHT22;7898;48.658;9.068;2023-07-13T06:23:40;18.40;99.90
15596;DHT22;7898;48.658;9.068;2023-07-13T06:26:09;18.50;99.90
15596;DHT22;7898;48.658;9.068;2023-07-13T06:28:37;18.90;99.90
15596;DHT22;7898;48.658;9.068;2023-07-13T06:31:06;19.00;99.90
15596;DHT22;7898;48.658;9.068;2023-07-13T06:33:33;19.10;99.90
15596;DHT22;7898;48.658;9.068;2023-07-13T06:36:01;19.40;99.90
15596;DHT22;7898;48.658;9.068;2023-07-13T06:38:28;19.60;99.90
15596;DHT22;7898;48.658;9.068;2023-07-13T06:40:54;19.80;99.90
15596;DHT22;7898;48.658;9.068;2023-07-13T06:43:23;20.00;99.90
15596;DHT22;7898;48.658;9.068;2023-07-13T06:45:50;20.20;99.90
15596;DHT22;7898;48.658;9.068;2023-07-13T06:48:18;20.60;99.90
15596;DHT22;7898;48.658;9.068;2023-07-13T06:50:49;20.80;99.90
15596;DHT22;7898;48.658;9.068;2023-07-13T06:53:18;21.00;99.90
15596;DHT22;7898;48.658;9.068;2023-07-13T06:55:45;21.20;99.90
15596;DHT22;7898;48.658;9.068;2023-07-13T06:58:12;21.40;99.90
15596;DHT22;7898;48.658;9.068;2023-07-13T07:00:41;21.60;99.90
15596;DHT22;7898;48.658;9.068;2023-07-13T07:03:08;21.90;99.90
15596;DHT22;7898;48.658;9.068;2023-07-13T07:05:35;22.30;99.90
15596;DHT22;7898;48.658;9.068;2023-07-13T07:08:02;22.70;99.90
15596;DHT22;7898;48.658;9.068;2023-07-13T07:10:30;23.10;99.90
15596;DHT22;7898;48.658;9.068;2023-07-13T07:12:57;23.20;99.90
15596;DHT22;7898;48.658;9.068;2023-07-13T07:15:24;23.60;99.90
15596;DHT22;7898;48.658;9.068;2023-07-13T07:17:52;24.00;99.90
15596;DHT22;7898;48.658;9.068;2023-07-13T07:20:19;24.30;99.90
15596;DHT22;7898;48.658;9.068;2023-07-13T07:22:46;24.40;99.90
15596;DHT22;7898;48.658;9.068;2023-07-13T07:25:13;24.60;99.90
15596;DHT22;7898;48.658;9.068;2023-07-13T07:27:40;24.80;99.90
15596;DHT22;7898;48.658;9.068;2023-07-13T07:30:08;24.90;99.90
15596;DHT22;7898;48.658;9.068;2023-07-13T07:32:35;25.00;99.90
15596;DHT22;7898;48.658;9.068;2023-07-13T07:35:04;25.20;99.90
15596;DHT22;7898;48.658;9.068;2023-07-13T07:37:31;25.20;99.90
15596;DHT22;7898;48.658;9.068;2023-07-13T07:39:58;25.20;99.90
15596;DHT22;7898;48.658;9.068;2023-07-13T07:42:25;25.10;99.90
15596;DHT22;7898;48.658;9.068;2023-07-13T07:44:52;25.10;99.90
15596;DHT22;7898;48.658;9.068;2023-07-13T07:47:18;25.10;99.90
15596;DHT22;7898;48.658;9.068;2023-07-13T07:49:45;25.20;99.90
15596;DHT22;7898;48.658;9.068;2023-07-13T07:52:13;25.40;99.90
15596;DHT22;7898;48.658;9.068;2023-07-13T07:54:40;25.40;99.90
15596;DHT22;7898;48.658;9.068;2023-07-13T07:57:07;25.40;99.90
15596;DHT22;7898;48.658;9.068;2023-07-13T07:59:36;25.40;99.90
15596;DHT22;7898;48.658;9.068;2023-07-13T08:02:04;25.40;99.90
15596;DHT22;7898;48.658;9.068;2023-07-13T08:04:31;25.20;99.90
15596;DHT22;7898;48.658;9.068;2023-07-13T08:06:58;25.00;99.90
15596;DHT22;7898;48.658;9.068;2023-07-13T08:09:27;24.90;99.90
15596;DHT22;7898;48.658;9.068;2023-07-13T08:11:54;24.80;99.90
15596;DHT22;7898;48.658;9.068;2023-07-13T08:14:21;24.80;99.90
15596;DHT22;7898;48.658;9.068;2023-07-13T08:16:48;24.90;99.90
15596;DHT22;7898;48.658;9.068;2023-07-13T08:19:15;25.00;99.90
15596;DHT22;7898;48.658;9.068;2023-07-13T08:21:42;25.00;99.90
15596;DHT22;7898;48.658;9.068;2023-07-13T08:24:09;25.10;99.90
15596;DHT22;7898;48.658;9.068;2023-07-13T08:26:37;25.10;99.90
15596;DHT22;7898;48.658;9.068;2023-07-13T08:29:04;25.20;99.90
15596;DHT22;7898;48.658;9.068;2023-07-13T08:31:31;25.30;99.90
15596;DHT22;7898;48.658;9.068;2023-07-13T08:33:59;25.30;99.90
15596;DHT22;7898;48.658;9.068;2023-07-13T08:36:26;25.40;99.90
15596;DHT22;7898;48.658;9.068;2023-07-13T08:38:53;25.20;99.90
15596;DHT22;7898;48.658;9.068;2023-07-13T08:41:20;25.10;99.90
15596;DHT22;7898;48.658;9.068;2023-07-13T08:43:54;25.10;99.90
15596;DHT22;7898;48.658;9.068;2023-07-13T08:46:25;25.20;99.90
15596;DHT22;7898;48.658;9.068;2023-07-13T08:48:55;25.30;99.90
15596;DHT22;7898;48.658;9.068;2023-07-13T08:51:30;25.40;99.90
15596;DHT22;7898;48.658;9.068;2023-07-13T08:54:00;25.50;99.90
15596;DHT22;7898;48.658;9.068;2023-07-13T08:56:29;24.90;99.20
15596;DHT22;7898;48.658;9.068;2023-07-13T08:59:04;24.50;99.90
15596;DHT22;7898;48.658;9.068;2023-07-13T09:01:47;24.50;99.90
15596;DHT22;7898;48.658;9.068;2023-07-13T09:04:19;24.50;99.90
15596;DHT22;7898;48.658;9.068;2023-07-13T09:06:59;24.60;99.90
15596;DHT22;7898;48.658;9.068;2023-07-13T09:09:39;24.80;99.90
15596;DHT22;7898;48.658;9.068;2023-07-13T09:12:13;25.10;99.90
15596;DHT22;7898;48.658;9.068;2023-07-13T09:14:45;25.20;99.70
15596;DHT22;7898;48.658;9.068;2023-07-13T09:17:17;25.20;99.60
15596;DHT22;7898;48.658;9.068;2023-07-13T09:19:48;25.30;99.90
15596;DHT22;7898;48.658;9.068;2023-07-13T09:22:19;25.30;99.90
15596;DHT22;7898;48.658;9.068;2023-07-13T09:24:54;25.50;99.90
15596;DHT22;7898;48.658;9.068;2023-07-13T09:27:25;25.70;98.30
15596;DHT22;7898;48.658;9.068;2023-07-13T09:30:01;25.60;97.80
15596;DHT22;7898;48.658;9.068;2023-07-13T09:32:29;25.10;97.90
15596;DHT22;7898;48.658;9.068;2023-07-13T09:34:56;24.60;98.70
15596;DHT22;7898;48.658;9.068;2023-07-13T09:37:28;24.20;98.30
15596;DHT22;7898;48.658;9.068;2023-07-13T09:39:58;24.00;99.90
15596;DHT22;7898;48.658;9.068;2023-07-13T09:42:25;24.00;99.90
15596;DHT22;7898;48.658;9.068;2023-07-13T09:44:59;23.90;99.60
15596;DHT22;7898;48.658;9.068;2023-07-13T09:47:29;23.80;99.90
15596;DHT22;7898;48.658;9.068;2023-07-13T09:49:58;23.70;99.90
15596;DHT22;7898;48.658;9.068;2023-07-13T09:52:26;23.70;99.90
15596;DHT22;7898;48.658;9.068;2023-07-13T09:54:54;23.70;99.90
15596;DHT22;7898;48.658;9.068;2023-07-13T09:57:25;23.70;99.90
15596;DHT22;7898;48.658;9.068;2023-07-13T09:59:54;23.70;99.90
15596;DHT22;7898;48.658;9.068;2023-07-13T10:02:28;23.60;99.90
15596;DHT22;7898;48.658;9.068;2023-07-13T10:04:57;23.60;99.90
15596;DHT22;7898;48.658;9.068;2023-07-13T10:07:25;23.70;99.90
15596;DHT22;7898;48.658;9.068;2023-07-13T10:09:52;24.00;99.90
15596;DHT22;7898;48.658;9.068;2023-07-13T10:12:21;24.30;99.90
15596;DHT22;7898;48.658;9.068;2023-07-13T10:14:51;24.50;99.90
15596;DHT22;7898;48.658;9.068;2023-07-13T10:17:27;24.70;99.90
15596;DHT22;7898;48.658;9.068;2023-07-13T10:19:59;24.90;99.90
15596;DHT22;7898;48.658;9.068;2023-07-13T10:22:37;25.00;99.90
15596;DHT22;7898;48.658;9.068;2023-07-13T10:25:15;25.20;99.90
15596;DHT22;7898;48.658;9.068;2023-07-13T10:27:44;25.20;99.40
15596;DHT22;7898;48.658;9.068;2023-07-13T10:30:15;25.20;99.90
15596;DHT22;7898;48.658;9.068;2023-07-13T10:32:45;25.40;99.50
15596;DHT22;7898;48.658;9.068;2023-07-13T10:35:14;25.40;99.90
15596;DHT22;7898;48.658;9.068;2023-07-13T10:37:47;25.30;99.80
15596;DHT22;7898;48.658;9.068;2023-07-13T10:40:19;25.20;99.60
15596;DHT22;7898;48.658;9.068;2023-07-13T10:42:50;25.20;99.90
15596;DHT22;7898;48.658;9.068;2023-07-13T10:45:21;25.20;99.90
15596;DHT22;7898;48.658;9.068;2023-07-13T10:47:52;25.20;99.30
15596;DHT22;7898;48.658;9.068;2023-07-13T10:50:23;25.00;99.20
15596;DHT22;7898;48.658;9.068;2023-07-13T10:52:52;25.10;99.90
15596;DHT22;7898;48.658;9.068;2023-07-13T10:55:38;25.00;99.90
15596;DHT22;7898;48.658;9.068;2023-07-13T10:58:15;25.20;99.90
15596;DHT22;7898;48.658;9.068;2023-07-13T11:00:50;25.40;99.90
15596;DHT22;7898;48.658;9.068;2023-07-13T11:03:22;25.50;98.40
15596;DHT22;7898;48.658;9.068;2023-07-13T11:05:51;25.60;97.70
15596;DHT22;7898;48.658;9.068;2023-07-13T11:08:33;25.50;98.20
15596;DHT22;7898;48.658;9.068;2023-07-13T11:11:02;25.40;97.90
15596;DHT22;7898;48.658;9.068;2023-07-13T11:13:57;25.30;97.30
15596;DHT22;7898;48.658;9.068;2023-07-13T11:16:46;25.30;98.10
15596;DHT22;7898;48.658;9.068;2023-07-13T11:19:40;25.40;98.40
15596;DHT22;7898;48.658;9.068;2023-07-13T11:22:26;25.50;98.00
15596;DHT22;7898;48.658;9.068;2023-07-13T11:25:26;25.70;98.00
15596;DHT22;7898;48.658;9.068;2023-07-13T11:28:21;25.90;96.40
15596;DHT22;7898;48.658;9.068;2023-07-13T11:30:53;25.70;97.60
15596;DHT22;7898;48.658;9.068;2023-07-13T11:33:28;25.80;98.40
15596;DHT22;7898;48.658;9.068;2023-07-13T11:36:03;25.90;97.80
15596;DHT22;7898;48.658;9.068;2023-07-13T11:38:35;25.80;97.60
15596;DHT22;7898;48.658;9.068;2023-07-13T11:41:07;25.70;97.60
15596;DHT22;7898;48.658;9.068;2023-07-13T11:43:38;25.70;97.50
15596;DHT22;7898;48.658;9.068;2023-07-13T11:46:15;25.70;97.10
15596;DHT22;7898;48.658;9.068;2023-07-13T11:48:45;25.40;97.10
15596;DHT22;7898;48.658;9.068;2023-07-13T11:51:22;25.30;97.60
15596;DHT22;7898;48.658;9.068;2023-07-13T11:53:51;25.20;97.90
15596;DHT22;7898;48.658;9.068;2023-07-13T11:56:18;25.10;97.60
15596;DHT22;7898;48.658;9.068;2023-07-13T11:58:48;25.20;97.90
15596;DHT22;7898;48.658;9.068;2023-07-13T12:01:20;25.50;98.70
15596;DHT22;7898;48.658;9.068;2023-07-13T12:03:48;25.80;97.50
15596;DHT22;7898;48.658;9.068;2023-07-13T12:06:29;26.10;97.80
15596;DHT22;7898;48.658;9.068;2023-07-13T12:08:57;26.10;96.70
15596;DHT22;7898;48.658;9.068;2023-07-13T12:11:24;25.90;96.20
15596;DHT22;7898;48.658;9.068;2023-07-13T12:13:51;25.80;97.10
15596;DHT22;7898;48.658;9.068;2023-07-13T12:16:25;25.90;97.40
15596;DHT22;7898;48.658;9.068;2023-07-13T12:18:53;26.00;96.70
15596;DHT22;7898;48.658;9.068;2023-07-13T12:21:27;26.10;96.00
15596;DHT22;7898;48.658;9.068;2023-07-13T12:23:56;26.00;97.00
15596;DHT22;7898;48.658;9.068;2023-07-13T12:26:23;25.80;96.50
15596;DHT22;7898;48.658;9.068;2023-07-13T12:28:52;25.60;96.80
15596;DHT22;7898;48.658;9.068;2023-07-13T12:31:40;25.60;96.80
15596;DHT22;7898;48.658;9.068;2023-07-13T12:34:09;25.60;97.20
15596;DHT22;7898;48.658;9.068;2023-07-13T12:36:41;25.50;97.80
15596;DHT22;7898;48.658;9.068;2023-07-13T12:39:15;25.30;98.20
15596;DHT22;7898;48.658;9.068;2023-07-13T12:41:44;25.30;98.70
15596;DHT22;7898;48.658;9.068;2023-07-13T12:44:12;25.20;97.60
15596;DHT22;7898;48.658;9.068;2023-07-13T12:46:52;25.10;97.50
15596;DHT22;7898;48.658;9.068;2023-07-13T12:49:24;25.10;98.20
15596;DHT22;7898;48.658;9.068;2023-07-13T12:51:56;25.40;98.30
15596;DHT22;7898;48.658;9.068;2023-07-13T12:54:24;25.70;97.50
15596;DHT22;7898;48.658;9.068;2023-07-13T12:56:53;26.00;97.80
15596;DHT22;7898;48.658;9.068;2023-07-13T12:59:22;26.20;94.90
15596;DHT22;7898;48.658;9.068;2023-07-13T13:01:51;26.40;95.10
15596;DHT22;7898;48.658;9.068;2023-07-13T13:04:20;26.50;96.00
15596;DHT22;7898;48.658;9.068;2023-07-13T13:06:48;26.60;96.70
15596;DHT22;7898;48.658;9.068;2023-07-13T13:09:17;26.80;95.50
15596;DHT22;7898;48.658;9.068;2023-07-13T13:11:45;26.90;94.70
15596;DHT22;7898;48.658;9.068;2023-07-13T13:14:13;26.90;95.30
15596;DHT22;7898;48.658;9.068;2023-07-13T13:16:46;27.10;93.50
15596;DHT22;7898;48.658;9.068;2023-07-13T13:19:17;27.20;94.00
15596;DHT22;7898;48.658;9.068;2023-07-13T13:21:46;27.40;93.80
15596;DHT22;7898;48.658;9.068;2023-07-13T13:24:14;27.40;94.10
15596;DHT22;7898;48.658;9.068;2023-07-13T13:26:44;27.20;94.60
15596;DHT22;7898;48.658;9.068;2023-07-13T13:29:17;26.90;95.00
15596;DHT22;7898;48.658;9.068;2023-07-13T13:31:44;26.80;96.40
15596;DHT22;7898;48.658;9.068;2023-07-13T13:34:13;26.90;95.30
15596;DHT22;7898;48.658;9.068;2023-07-13T13:36:41;26.90;94.80
15596;DHT22;7898;48.658;9.068;2023-07-13T13:39:28;26.70;94.80
15596;DHT22;7898;48.658;9.068;2023-07-13T13:41:57;26.50;95.60
15596;DHT22;7898;48.658;9.068;2023-07-13T13:44:24;26.60;95.90
15596;DHT22;7898;48.658;9.068;2023-07-13T13:46:53;26.70;94.60
15596;DHT22;7898;48.658;9.068;2023-07-13T13:49:22;26.90;95.30
15596;DHT22;7898;48.658;9.068;2023-07-13T13:51:49;27.00;94.10
15596;DHT22;7898;48.658;9.068;2023-07-13T13:54:18;26.80;93.90
15596;DHT22;7898;48.658;9.068;2023-07-13T13:56:46;26.60;93.30
15596;DHT22;7898;48.658;9.068;2023-07-13T13:59:15;26.90;92.80
15596;DHT22;7898;48.658;9.068;2023-07-13T14:01:44;27.40;93.50
15596;DHT22;7898;48.658;9.068;2023-07-13T14:04:15;27.70;94.30
15596;DHT22;7898;48.658;9.068;2023-07-13T14:06:43;28.30;94.30
15596;DHT22;7898;48.658;9.068;2023-07-13T14:09:11;28.70;91.80
15596;DHT22;7898;48.658;9.068;2023-07-13T14:11:38;28.90;90.40
15596;DHT22;7898;48.658;9.068;2023-07-13T14:14:11;28.80;91.00
15596;DHT22;7898;48.658;9.068;2023-07-13T14:16:40;28.50;89.80
15596;DHT22;7898;48.658;9.068;2023-07-13T14:19:09;28.40;91.00
15596;DHT22;7898;48.658;9.068;2023-07-13T14:21:36;28.60;90.40
15596;DHT22;7898;48.658;9.068;2023-07-13T14:24:04;28.90;90.60
15596;DHT22;7898;48.658;9.068;2023-07-13T14:26:35;29.20;90.60
15596;DHT22;7898;48.658;9.068;2023-07-13T14:29:08;29.20;90.00
15596;DHT22;7898;48.658;9.068;2023-07-13T14:31:37;29.50;89.40
15596;DHT22;7898;48.658;9.068;2023-07-13T14:34:05;29.60;89.40
15596;DHT22;7898;48.658;9.068;2023-07-13T14:36:34;29.20;89.30
15596;DHT22;7898;48.658;9.068;2023-07-13T14:39:18;28.80;90.50
15596;DHT22;7898;48.658;9.068;2023-07-13T14:41:50;28.70;90.80
15596;DHT22;7898;48.658;9.068;2023-07-13T14:44:20;28.40;90.80
15596;DHT22;7898;48.658;9.068;2023-07-13T14:46:49;27.90;90.80
15596;DHT22;7898;48.658;9.068;2023-07-13T14:49:23;27.50;91.60
15596;DHT22;7898;48.658;9.068;2023-07-13T14:51:51;27.10;92.00
15596;DHT22;7898;48.658;9.068;2023-07-13T14:54:17;26.90;92.60
15596;DHT22;7898;48.658;9.068;2023-07-13T14:56:44;26.60;92.40
15596;DHT22;7898;48.658;9.068;2023-07-13T14:59:11;26.70;93.40
15596;DHT22;7898;48.658;9.068;2023-07-13T15:01:39;27.60;92.60
15596;DHT22;7898;48.658;9.068;2023-07-13T15:04:06;28.60;91.50
15596;DHT22;7898;48.658;9.068;2023-07-13T15:06:55;29.70;92.20
15596;DHT22;7898;48.658;9.068;2023-07-13T15:09:23;30.90;90.20
15596;DHT22;7898;48.658;9.068;2023-07-13T15:11:52;31.70;90.30
15596;DHT22;7898;48.658;9.068;2023-07-13T15:14:19;32.50;88.30
15596;DHT22;7898;48.658;9.068;2023-07-13T15:16:46;32.90;86.30
15596;DHT22;7898;48.658;9.068;2023-07-13T15:19:13;32.90;85.10
15596;DHT22;7898;48.658;9.068;2023-07-13T15:21:42;32.80;85.80
15596;DHT22;7898;48.658;9.068;2023-07-13T15:24:10;32.80;84.50
15596;DHT22;7898;48.658;9.068;2023-07-13T15:26:37;32.60;84.40
15596;DHT22;7898;48.658;9.068;2023-07-13T15:29:05;32.40;85.00
15596;DHT22;7898;48.658;9.068;2023-07-13T15:31:32;32.10;86.20
15596;DHT22;7898;48.658;9.068;2023-07-13T15:34:09;32.00;85.60
15596;DHT22;7898;48.658;9.068;2023-07-13T15:36:37;31.90;86.60
15596;DHT22;7898;48.658;9.068;2023-07-13T15:39:06;31.60;85.70
15596;DHT22;7898;48.658;9.068;2023-07-13T15:41:33;30.90;86.00
15596;DHT22;7898;48.658;9.068;2023-07-13T15:44:22;30.10;88.20
15596;DHT22;7898;48.658;9.068;2023-07-13T15:46:49;29.90;87.90
15596;DHT22;7898;48.658;9.068;2023-07-13T15:49:16;29.90;88.90
15596;DHT22;7898;48.658;9.068;2023-07-13T15:51:43;29.90;87.30
15596;DHT22;7898;48.658;9.068;2023-07-13T15:54:14;30.00;89.40
15596;DHT22;7898;48.658;9.068;2023-07-13T15:56:42;29.90;88.40
15596;DHT22;7898;48.658;9.068;2023-07-13T15:59:10;29.80;87.10
15596;DHT22;7898;48.658;9.068;2023-07-13T16:01:40;29.40;89.00
15596;DHT22;7898;48.658;9.068;2023-07-13T16:04:08;29.10;88.10
15596;DHT22;7898;48.658;9.068;2023-07-13T16:06:36;29.10;89.10